sensor_id;sensor_type;location;lat;lon;timestamp;temperature;humidity
81524;DHT22;70954;49.500;10.416;2023-08-08T00:01:22;14.80;65.20
81524;DHT22;70954;49.500;10.416;2023-08-08T00:03:47;14.80;65.20
81524;DHT22;70954;49.500;10.416;2023-08-08T00:06:13;14.80;65.20
81524;DHT22;70954;49.500;10.416;2023-08-08T00:08:38;14.80;65.20
81524;DHT22;70954;49.500;10.416;2023-08-08T00:11:04;14.80;65.30
81524;DHT22;70954;49.500;10.416;2023-08-08T00:13:29;14.80;65.30
81524;DHT22;70954;49.500;10.416;2023-08-08T00:15:55;14.80;65.40
81524;DHT22;70954;49.500;10.416;2023-08-08T00:18:20;14.90;65.40
81524;DHT22;70954;49.500;10.416;2023-08-08T00:20:46;14.90;65.50
81524;DHT22;70954;49.500;10.416;2023-08-08T00:23:11;14.90;65.50
81524;DHT22;70954;49.500;10.416;2023-08-08T00:25:37;14.90;65.60
81524;DHT22;70954;49.500;10.416;2023-08-08T00:28:03;14.90;65.60
81524;DHT22;70954;49.500;10.416;2023-08-08T00:30:28;14.90;65.60
81524;DHT22;70954;49.500;10.416;2023-08-08T00:32:54;14.90;65.60
81524;DHT22;70954;49.500;10.416;2023-08-08T00:35:19;15.00;65.60
81524;DHT22;70954;49.500;10.416;2023-08-08T00:37:45;15.00;65.60
81524;DHT22;70954;49.500;10.416;2023-08-08T00:40:10;15.00;65.50
81524;DHT22;70954;49.500;10.416;2023-08-08T00:42:36;15.00;65.40
81524;DHT22;70954;49.500;10.416;2023-08-08T00:45:01;15.00;65.40
81524;DHT22;70954;49.500;10.416;2023-08-08T00:47:27;15.00;65.40
81524;DHT22;70954;49.500;10.416;2023-08-08T00:49:53;15.00;65.40
81524;DHT22;70954;49.500;10.416;2023-08-08T00:52:18;15.00;65.40
81524;DHT22;70954;49.500;10.416;2023-08-08T00:54:44;15.00;65.40
81524;DHT22;70954;49.500;10.416;2023-08-08T00:57:09;15.00;65.30
81524;DHT22;70954;49.500;10.416;2023-08-08T00:59:35;15.00;65.20
81524;DHT22;70954;49.500;10.416;2023-08-08T01:02:01;15.00;65.10
81524;DHT22;70954;49.500;10.416;2023-08-08T01:04:26;15.00;65.10
81524;DHT22;70954;49.500;10.416;2023-08-08T01:07:01;15.00;65.00
81524;DHT22;70954;49.500;10.416;2023-08-08T01:09:35;15.00;64.90
81524;DHT22;70954;49.500;10.416;2023-08-08T01:12:01;15.00;64.80
81524;DHT22;70954;49.500;10.416;2023-08-08T01:14:29;15.00;64.80
81524;DHT22;70954;49.500;10.416;2023-08-08T01:16:56;15.00;64.80
81524;DHT22;70954;49.500;10.416;2023-08-08T01:19:25;15.00;64.90
81524;DHT22;70954;49.500;10.416;2023-08-08T01:21:53;15.00;64.90
81524;DHT22;70954;49.500;10.416;2023-08-08T01:24:24;14.90;65.00
81524;DHT22;70954;49.500;10.416;2023-08-08T01:26:49;14.90;65.10
81524;DHT22;70954;49.500;10.416;2023-08-08T01:29:15;14.90;65.10
81524;DHT22;70954;49.500;10.416;2023-08-08T01:31:41;14.90;65.20
81524;DHT22;70954;49.500;10.416;2023-08-08T01:34:07;14.90;65.30
81524;DHT22;70954;49.500;10.416;2023-08-08T01:36:42;14.90;65.40
81524;DHT22;70954;49.500;10.416;2023-08-08T01:39:13;14.90;65.50
81524;DHT22;70954;49.500;10.416;2023-08-08T01:41:39;14.90;65.50
81524;DHT22;70954;49.500;10.416;2023-08-08T01:44:07;14.90;65.50
81524;DHT22;70954;49.500;10.416;2023-08-08T01:46:33;14.90;65.50
81524;DHT22;70954;49.500;10.416;2023-08-08T01:48:59;14.90;65.50
81524;DHT22;70954;49.500;10.416;2023-08-08T01:51:25;14.90;65.60
81524;DHT22;70954;49.500;10.416;2023-08-08T01:53:51;15.00;65.60
81524;DHT22;70954;49.500;10.416;2023-08-08T01:56:17;15.00;65.60
81524;DHT22;70954;49.500;10.416;2023-08-08T01:58:43;14.90;65.60
81524;DHT22;70954;49.500;10.416;2023-08-08T02:01:08;15.00;65.60
81524;DHT22;70954;49.500;10.416;2023-08-08T02:03:33;15.00;65.60
81524;DHT22;70954;49.500;10.416;2023-08-08T02:05:59;15.00;65.60
81524;DHT22;70954;49.500;10.416;2023-08-08T02:08:24;15.00;65.70
81524;DHT22;70954;49.500;10.416;2023-08-08T02:10:50;15.00;65.70
81524;DHT22;70954;49.500;10.416;2023-08-08T02:13:16;15.00;65.70
81524;DHT22;70954;49.500;10.416;2023-08-08T02:15:41;15.00;65.70
81524;DHT22;70954;49.500;10.416;2023-08-08T02:18:06;15.00;65.70
81524;DHT22;70954;49.500;10.416;2023-08-08T02:20:32;15.00;65.70
81524;DHT22;70954;49.500;10.416;2023-08-08T02:22:57;15.00;65.80
81524;DHT22;70954;49.500;10.416;2023-08-08T02:25:23;15.00;66.00
81524;DHT22;70954;49.500;10.416;2023-08-08T02:27:48;15.00;66.10
81524;DHT22;70954;49.500;10.416;2023-08-08T02:30:14;14.90;66.20
81524;DHT22;70954;49.500;10.416;2023-08-08T02:32:39;14.90;66.30
81524;DHT22;70954;49.500;10.416;2023-08-08T02:35:05;14.90;66.40
81524;DHT22;70954;49.500;10.416;2023-08-08T02:37:31;14.90;66.60
81524;DHT22;70954;49.500;10.416;2023-08-08T02:39:56;14.90;66.70
81524;DHT22;70954;49.500;10.416;2023-08-08T02:42:22;14.80;66.80
81524;DHT22;70954;49.500;10.416;2023-08-08T02:44:47;14.80;66.80
81524;DHT22;70954;49.500;10.416;2023-08-08T02:47:13;14.80;66.80
81524;DHT22;70954;49.500;10.416;2023-08-08T02:49:38;14.80;66.90
81524;DHT22;70954;49.500;10.416;2023-08-08T02:52:04;14.80;66.90
81524;DHT22;70954;49.500;10.416;2023-08-08T02:54:29;14.80;66.90
81524;DHT22;70954;49.500;10.416;2023-08-08T02:56:55;14.80;66.90
81524;DHT22;70954;49.500;10.416;2023-08-08T02:59:20;14.70;67.10
81524;DHT22;70954;49.500;10.416;2023-08-08T03:01:46;14.70;67.10
81524;DHT22;70954;49.500;10.416;2023-08-08T03:04:11;14.70;67.20
81524;DHT22;70954;49.500;10.416;2023-08-08T03:06:37;14.70;67.20
81524;DHT22;70954;49.500;10.416;2023-08-08T03:09:02;14.70;67.20
81524;DHT22;70954;49.500;10.416;2023-08-08T03:11:27;14.70;67.20
81524;DHT22;70954;49.500;10.416;2023-08-08T03:13:53;14.70;67.20
81524;DHT22;70954;49.500;10.416;2023-08-08T03:16:18;14.70;67.10
81524;DHT22;70954;49.500;10.416;2023-08-08T03:18:44;14.60;67.20
81524;DHT22;70954;49.500;10.416;2023-08-08T03:21:09;14.60;67.20
81524;DHT22;70954;49.500;10.416;2023-08-08T03:23:35;14.60;67.20
81524;DHT22;70954;49.500;10.416;2023-08-08T03:26:00;14.60;67.20
81524;DHT22;70954;49.500;10.416;2023-08-08T03:28:26;14.60;67.20
81524;DHT22;70954;49.500;10.416;2023-08-08T03:30:51;14.50;67.20
81524;DHT22;70954;49.500;10.416;2023-08-08T03:33:17;14.50;67.20
81524;DHT22;70954;49.500;10.416;2023-08-08T03:35:42;14.50;67.20
81524;DHT22;70954;49.500;10.416;2023-08-08T03:38:08;14.50;67.10
81524;DHT22;70954;49.500;10.416;2023-08-08T03:40:33;14.40;67.10
81524;DHT22;70954;49.500;10.416;2023-08-08T03:42:58;14.40;67.20
81524;DHT22;70954;49.500;10.416;2023-08-08T03:45:24;14.40;67.20
81524;DHT22;70954;49.500;10.416;2023-08-08T03:47:49;14.30;67.20
81524;DHT22;70954;49.500;10.416;2023-08-08T03:50:15;14.30;67.20
81524;DHT22;70954;49.500;10.416;2023-08-08T03:52:40;14.30;67.20
81524;DHT22;70954;49.500;10.416;2023-08-08T03:55:06;14.30;67.20
81524;DHT22;70954;49.500;10.416;2023-08-08T03:57:32;14.20;67.10
81524;DHT22;70954;49.500;10.416;2023-08-08T03:59:57;14.20;67.20
81524;DHT22;70954;49.500;10.416;2023-08-08T04:02:23;14.20;67.20
81524;DHT22;70954;49.500;10.416;2023-08-08T04:04:49;14.20;67.30
81524;DHT22;70954;49.500;10.416;2023-08-08T04:07:14;14.10;67.30
81524;DHT22;70954;49.500;10.416;2023-08-08T04:09:40;14.10;67.50
81524;DHT22;70954;49.500;10.416;2023-08-08T04:12:05;14.10;67.50
81524;DHT22;70954;49.500;10.416;2023-08-08T04:14:31;14.00;67.60
81524;DHT22;70954;49.500;10.416;2023-08-08T04:16:56;14.00;67.70
81524;DHT22;70954;49.500;10.416;2023-08-08T04:19:22;14.00;67.80
81524;DHT22;70954;49.500;10.416;2023-08-08T04:21:47;14.00;67.90
81524;DHT22;70954;49.500;10.416;2023-08-08T04:24:13;13.90;67.90
81524;DHT22;70954;49.500;10.416;2023-08-08T04:26:38;13.90;68.10
81524;DHT22;70954;49.500;10.416;2023-08-08T04:29:05;13.90;68.10
81524;DHT22;70954;49.500;10.416;2023-08-08T04:31:30;13.90;68.20
81524;DHT22;70954;49.500;10.416;2023-08-08T04:33:55;13.90;68.20
81524;DHT22;70954;49.500;10.416;2023-08-08T04:36:21;13.90;68.30
81524;DHT22;70954;49.500;10.416;2023-08-08T04:38:46;13.90;68.30
81524;DHT22;70954;49.500;10.416;2023-08-08T04:41:12;13.90;68.30
81524;DHT22;70954;49.500;10.416;2023-08-08T04:43:37;13.90;68.20
81524;DHT22;70954;49.500;10.416;2023-08-08T04:46:03;13.90;68.30
81524;DHT22;70954;49.500;10.416;2023-08-08T04:48:28;13.90;68.40
81524;DHT22;70954;49.500;10.416;2023-08-08T04:50:54;13.90;68.40
81524;DHT22;70954;49.500;10.416;2023-08-08T04:53:19;13.80;68.50
81524;DHT22;70954;49.500;10.416;2023-08-08T04:55:45;13.80;68.60
81524;DHT22;70954;49.500;10.416;2023-08-08T04:58:11;13.80;68.70
81524;DHT22;70954;49.500;10.416;2023-08-08T05:00:36;13.80;68.70
81524;DHT22;70954;49.500;10.416;2023-08-08T05:03:02;13.80;68.80
81524;DHT22;70954;49.500;10.416;2023-08-08T05:05:27;13.80;68.90
81524;DHT22;70954;49.500;10.416;2023-08-08T05:07:53;13.80;69.00
81524;DHT22;70954;49.500;10.416;2023-08-08T05:10:18;13.80;69.20
81524;DHT22;70954;49.500;10.416;2023-08-08T05:12:44;13.80;69.30
81524;DHT22;70954;49.500;10.416;2023-08-08T05:15:09;13.90;69.30
81524;DHT22;70954;49.500;10.416;2023-08-08T05:17:35;13.90;69.40
81524;DHT22;70954;49.500;10.416;2023-08-08T05:20:00;13.90;69.50
81524;DHT22;70954;49.500;10.416;2023-08-08T05:22:26;13.90;69.70
81524;DHT22;70954;49.500;10.416;2023-08-08T05:24:51;13.90;70.00
81524;DHT22;70954;49.500;10.416;2023-08-08T05:27:17;13.90;70.30
81524;DHT22;70954;49.500;10.416;2023-08-08T05:29:42;14.00;70.50
81524;DHT22;70954;49.500;10.416;2023-08-08T05:32:08;14.10;70.70
81524;DHT22;70954;49.500;10.416;2023-08-08T05:34:34;14.10;70.50
81524;DHT22;70954;49.500;10.416;2023-08-08T05:37:00;14.20;70.40
81524;DHT22;70954;49.500;10.416;2023-08-08T05:39:25;14.20;70.40
81524;DHT22;70954;49.500;10.416;2023-08-08T05:41:51;14.30;70.20
81524;DHT22;70954;49.500;10.416;2023-08-08T05:44:17;14.40;70.20
81524;DHT22;70954;49.500;10.416;2023-08-08T05:46:42;14.40;70.10
81524;DHT22;70954;49.500;10.416;2023-08-08T05:49:08;14.40;69.90
81524;DHT22;70954;49.500;10.416;2023-08-08T05:51:33;14.50;69.90
81524;DHT22;70954;49.500;10.416;2023-08-08T05:53:58;14.50;69.80
81524;DHT22;70954;49.500;10.416;2023-08-08T05:56:24;14.60;69.80
81524;DHT22;70954;49.500;10.416;2023-08-08T05:58:49;14.60;69.90
81524;DHT22;70954;49.500;10.416;2023-08-08T06:01:15;14.60;69.80
81524;DHT22;70954;49.500;10.416;2023-08-08T06:03:40;14.70;69.90
81524;DHT22;70954;49.500;10.416;2023-08-08T06:06:06;14.70;69.90
81524;DHT22;70954;49.500;10.416;2023-08-08T06:08:32;14.80;70.00
81524;DHT22;70954;49.500;10.416;2023-08-08T06:10:57;14.80;70.10
81524;DHT22;70954;49.500;10.416;2023-08-08T06:13:23;14.90;70.20
81524;DHT22;70954;49.500;10.416;2023-08-08T06:15:48;14.90;70.40
81524;DHT22;70954;49.500;10.416;2023-08-08T06:18:14;15.00;70.50
81524;DHT22;70954;49.500;10.416;2023-08-08T06:20:39;15.00;70.50
81524;DHT22;70954;49.500;10.416;2023-08-08T06:23:05;15.10;70.50
81524;DHT22;70954;49.500;10.416;2023-08-08T06:25:30;15.20;70.50
81524;DHT22;70954;49.500;10.416;2023-08-08T06:27:56;15.30;70.20
81524;DHT22;70954;49.500;10.416;2023-08-08T06:30:21;15.40;70.10
81524;DHT22;70954;49.500;10.416;2023-08-08T06:32:47;15.40;69.70
81524;DHT22;70954;49.500;10.416;2023-08-08T06:35:12;15.50;69.50
81524;DHT22;70954;49.500;10.416;2023-08-08T06:37:38;15.60;69.40
81524;DHT22;70954;49.500;10.416;2023-08-08T06:40:04;15.60;69.20
81524;DHT22;70954;49.500;10.416;2023-08-08T06:42:29;15.60;69.20
81524;DHT22;70954;49.500;10.416;2023-08-08T06:44:55;15.70;69.20
81524;DHT22;70954;49.500;10.416;2023-08-08T06:47:20;15.80;69.00
81524;DHT22;70954;49.500;10.416;2023-08-08T06:49:46;15.80;68.80
81524;DHT22;70954;49.500;10.416;2023-08-08T06:52:11;15.90;68.60
81524;DHT22;70954;49.500;10.416;2023-08-08T06:54:36;16.00;68.50
81524;DHT22;70954;49.500;10.416;2023-08-08T06:57:02;16.00;68.50
81524;DHT22;70954;49.500;10.416;2023-08-08T06:59:28;16.00;68.30
81524;DHT22;70954;49.500;10.416;2023-08-08T07:01:53;16.10;68.30
81524;DHT22;70954;49.500;10.416;2023-08-08T07:04:19;16.10;68.20
81524;DHT22;70954;49.500;10.416;2023-08-08T07:06:44;16.20;68.30
81524;DHT22;70954;49.500;10.416;2023-08-08T07:09:10;16.30;68.20
81524;DHT22;70954;49.500;10.416;2023-08-08T07:11:36;16.40;68.10
81524;DHT22;70954;49.500;10.416;2023-08-08T07:14:02;16.40;68.00
81524;DHT22;70954;49.500;10.416;2023-08-08T07:16:27;16.50;68.00
81524;DHT22;70954;49.500;10.416;2023-08-08T07:18:53;16.60;68.10
81524;DHT22;70954;49.500;10.416;2023-08-08T07:21:18;16.60;68.20
81524;DHT22;70954;49.500;10.416;2023-08-08T07:23:44;16.80;68.30
81524;DHT22;70954;49.500;10.416;2023-08-08T07:26:09;16.90;68.20
81524;DHT22;70954;49.500;10.416;2023-08-08T07:28:35;17.00;67.90
81524;DHT22;70954;49.500;10.416;2023-08-08T07:31:00;17.00;67.70
81524;DHT22;70954;49.500;10.416;2023-08-08T07:33:26;17.20;67.50
81524;DHT22;70954;49.500;10.416;2023-08-08T07:35:51;17.30;67.30
81524;DHT22;70954;49.500;10.416;2023-08-08T07:38:16;17.40;66.60
81524;DHT22;70954;49.500;10.416;2023-08-08T07:40:42;17.50;66.10
81524;DHT22;70954;49.500;10.416;2023-08-08T07:43:07;17.60;65.80
81524;DHT22;70954;49.500;10.416;2023-08-08T07:45:33;17.70;65.10
81524;DHT22;70954;49.500;10.416;2023-08-08T07:47:58;17.80;65.00
81524;DHT22;70954;49.500;10.416;2023-08-08T07:50:24;17.80;64.60
81524;DHT22;70954;49.500;10.416;2023-08-08T07:52:49;18.00;64.90
81524;DHT22;70954;49.500;10.416;2023-08-08T07:55:15;18.00;63.90
81524;DHT22;70954;49.500;10.416;2023-08-08T07:57:40;18.00;62.90
81524;DHT22;70954;49.500;10.416;2023-08-08T08:00:06;18.10;63.30
81524;DHT22;70954;49.500;10.416;2023-08-08T08:02:32;18.10;61.30
81524;DHT22;70954;49.500;10.416;2023-08-08T08:04:57;18.20;60.90
81524;DHT22;70954;49.500;10.416;2023-08-08T08:07:23;18.20;61.40
81524;DHT22;70954;49.500;10.416;2023-08-08T08:09:48;18.20;61.10
81524;DHT22;70954;49.500;10.416;2023-08-08T08:12:14;18.30;59.70
81524;DHT22;70954;49.500;10.416;2023-08-08T08:14:39;18.30;60.70
81524;DHT22;70954;49.500;10.416;2023-08-08T08:17:05;18.40;61.10
81524;DHT22;70954;49.500;10.416;2023-08-08T08:19:30;18.40;60.70
81524;DHT22;70954;49.500;10.416;2023-08-08T08:21:56;18.50;60.40
81524;DHT22;70954;49.500;10.416;2023-08-08T08:24:21;18.60;58.20
81524;DHT22;70954;49.500;10.416;2023-08-08T08:26:46;18.60;58.20
81524;DHT22;70954;49.500;10.416;2023-08-08T08:29:12;18.70;57.60
81524;DHT22;70954;49.500;10.416;2023-08-08T08:31:37;18.80;57.30
81524;DHT22;70954;49.500;10.416;2023-08-08T08:34:03;18.80;57.00
81524;DHT22;70954;49.500;10.416;2023-08-08T08:36:29;18.90;56.40
81524;DHT22;70954;49.500;10.416;2023-08-08T08:38:54;19.00;56.20
81524;DHT22;70954;49.500;10.416;2023-08-08T08:41:23;19.00;56.00
81524;DHT22;70954;49.500;10.416;2023-08-08T08:43:50;19.10;56.10
81524;DHT22;70954;49.500;10.416;2023-08-08T08:46:20;19.10;55.30
81524;DHT22;70954;49.500;10.416;2023-08-08T08:48:46;19.20;53.40
81524;DHT22;70954;49.500;10.416;2023-08-08T08:51:12;19.30;54.60
81524;DHT22;70954;49.500;10.416;2023-08-08T08:53:38;19.30;54.80
81524;DHT22;70954;49.500;10.416;2023-08-08T08:56:03;19.40;54.80
81524;DHT22;70954;49.500;10.416;2023-08-08T08:58:29;19.40;55.20
81524;DHT22;70954;49.500;10.416;2023-08-08T09:00:55;19.50;53.50
81524;DHT22;70954;49.500;10.416;2023-08-08T09:03:21;19.50;53.40
81524;DHT22;70954;49.500;10.416;2023-08-08T09:05:47;19.60;52.90
81524;DHT22;70954;49.500;10.416;2023-08-08T09:08:13;19.70;52.30
81524;DHT22;70954;49.500;10.416;2023-08-08T09:10:38;19.70;52.50
81524;DHT22;70954;49.500;10.416;2023-08-08T09:13:04;19.70;52.00
81524;DHT22;70954;49.500;10.416;2023-08-08T09:15:31;19.70;52.30
81524;DHT22;70954;49.500;10.416;2023-08-08T09:17:57;19.70;52.50
81524;DHT22;70954;49.500;10.416;2023-08-08T09:20:22;19.60;52.20
81524;DHT22;70954;49.500;10.416;2023-08-08T09:22:48;19.60;52.40
81524;DHT22;70954;49.500;10.416;2023-08-08T09:25:13;19.60;52.60
81524;DHT22;70954;49.500;10.416;2023-08-08T09:27:40;19.60;52.20
81524;DHT22;70954;49.500;10.416;2023-08-08T09:30:06;19.60;52.60
81524;DHT22;70954;49.500;10.416;2023-08-08T09:32:32;19.60;51.60
81524;DHT22;70954;49.500;10.416;2023-08-08T09:37:28;19.70;52.10
81524;DHT22;70954;49.500;10.416;2023-08-08T09:40:02;19.70;51.80
81524;DHT22;70954;49.500;10.416;2023-08-08T09:42:28;19.70;51.20
81524;DHT22;70954;49.500;10.416;2023-08-08T09:44:56;19.70;51.50
81524;DHT22;70954;49.500;10.416;2023-08-08T09:47:21;19.80;51.20
81524;DHT22;70954;49.500;10.416;2023-08-08T09:49:47;19.90;51.70
81524;DHT22;70954;49.500;10.416;2023-08-08T09:52:15;19.90;50.90
81524;DHT22;70954;49.500;10.416;2023-08-08T09:54:41;19.90;51.50
81524;DHT22;70954;49.500;10.416;2023-08-08T09:57:07;20.00;51.50
81524;DHT22;70954;49.500;10.416;2023-08-08T09:59:32;20.00;51.40
81524;DHT22;70954;49.500;10.416;2023-08-08T10:01:59;20.00;51.40
81524;DHT22;70954;49.500;10.416;2023-08-08T10:04:24;20.10;50.80
81524;DHT22;70954;49.500;10.416;2023-08-08T10:06:51;20.10;50.90
81524;DHT22;70954;49.500;10.416;2023-08-08T10:09:17;20.20;50.70
81524;DHT22;70954;49.500;10.416;2023-08-08T10:11:43;20.20;49.80
81524;DHT22;70954;49.500;10.416;2023-08-08T10:14:10;20.30;50.20
81524;DHT22;70954;49.500;10.416;2023-08-08T10:16:37;20.30;49.80
81524;DHT22;70954;49.500;10.416;2023-08-08T10:19:04;20.30;50.10
81524;DHT22;70954;49.500;10.416;2023-08-08T10:21:38;20.30;49.00
81524;DHT22;70954;49.500;10.416;2023-08-08T10:24:07;20.40;48.70
81524;DHT22;70954;49.500;10.416;2023-08-08T10:26:33;20.50;49.60
81524;DHT22;70954;49.500;10.416;2023-08-08T10:29:00;20.50;49.00
81524;DHT22;70954;49.500;10.416;2023-08-08T10:31:27;20.50;49.20
81524;DHT22;70954;49.500;10.416;2023-08-08T10:34:06;20.60;49.50
81524;DHT22;70954;49.500;10.416;2023-08-08T10:36:48;20.60;47.00
81524;DHT22;70954;49.500;10.416;2023-08-08T10:39:18;20.60;43.80
81524;DHT22;70954;49.500;10.416;2023-08-08T10:41:50;20.70;46.40
81524;DHT22;70954;49.500;10.416;2023-08-08T10:44:25;20.70;45.80
81524;DHT22;70954;49.500;10.416;2023-08-08T10:46:52;20.70;45.00
81524;DHT22;70954;49.500;10.416;2023-08-08T10:49:17;20.70;46.30
81524;DHT22;70954;49.500;10.416;2023-08-08T10:51:45;20.70;46.00
81524;DHT22;70954;49.500;10.416;2023-08-08T10:54:16;20.70;47.00
81524;DHT22;70954;49.500;10.416;2023-08-08T10:56:49;20.80;46.60
81524;DHT22;70954;49.500;10.416;2023-08-08T10:59:17;20.70;46.60
81524;DHT22;70954;49.500;10.416;2023-08-08T11:01:46;20.80;47.20
81524;DHT22;70954;49.500;10.416;2023-08-08T11:04:13;20.80;47.10
81524;DHT22;70954;49.500;10.416;2023-08-08T11:06:39;20.90;47.20
81524;DHT22;70954;49.500;10.416;2023-08-08T11:09:08;20.90;46.90
81524;DHT22;70954;49.500;10.416;2023-08-08T11:11:41;20.90;46.50
81524;DHT22;70954;49.500;10.416;2023-08-08T11:14:16;21.00;46.40
81524;DHT22;70954;49.500;10.416;2023-08-08T11:16:43;21.00;46.10
81524;DHT22;70954;49.500;10.416;2023-08-08T11:19:09;21.10;46.80
81524;DHT22;70954;49.500;10.416;2023-08-08T11:21:36;21.10;46.50
81524;DHT22;70954;49.500;10.416;2023-08-08T11:24:04;21.10;47.10
81524;DHT22;70954;49.500;10.416;2023-08-08T11:26:29;21.10;46.20
81524;DHT22;70954;49.500;10.416;2023-08-08T11:28:55;21.10;46.10
81524;DHT22;70954;49.500;10.416;2023-08-08T11:31:21;21.20;45.40
81524;DHT22;70954;49.500;10.416;2023-08-08T11:33:47;21.20;46.20
81524;DHT22;70954;49.500;10.416;2023-08-08T11:36:14;21.30;46.70
81524;DHT22;70954;49.500;10.416;2023-08-08T11:38:40;21.30;45.80
81524;DHT22;70954;49.500;10.416;2023-08-08T11:41:06;21.40;45.80
81524;DHT22;70954;49.500;10.416;2023-08-08T11:43:32;21.40;45.80
81524;DHT22;70954;49.500;10.416;2023-08-08T11:46:00;21.40;46.00
81524;DHT22;70954;49.500;10.416;2023-08-08T11:48:26;21.50;45.00
81524;DHT22;70954;49.500;10.416;2023-08-08T11:50:52;21.50;44.90
81524;DHT22;70954;49.500;10.416;2023-08-08T11:53:19;21.50;44.90
81524;DHT22;70954;49.500;10.416;2023-08-08T11:55:45;21.50;45.10
81524;DHT22;70954;49.500;10.416;2023-08-08T11:58:14;21.50;44.60
81524;DHT22;70954;49.500;10.416;2023-08-08T12:00:39;21.50;45.10
81524;DHT22;70954;49.500;10.416;2023-08-08T12:03:05;21.50;45.60
81524;DHT22;70954;49.500;10.416;2023-08-08T12:05:36;21.50;45.80
81524;DHT22;70954;49.500;10.416;2023-08-08T12:08:04;21.70;44.50
81524;DHT22;70954;49.500;10.416;2023-08-08T12:10:30;21.70;45.30
81524;DHT22;70954;49.500;10.416;2023-08-08T12:12:57;21.70;45.30
81524;DHT22;70954;49.500;10.416;2023-08-08T12:15:22;21.70;45.30
81524;DHT22;70954;49.500;10.416;2023-08-08T12:17:48;21.70;45.20
81524;DHT22;70954;49.500;10.416;2023-08-08T12:20:15;21.80;45.10
81524;DHT22;70954;49.500;10.416;2023-08-08T12:22:40;21.90;44.70
81524;DHT22;70954;49.500;10.416;2023-08-08T12:25:06;21.90;43.80
81524;DHT22;70954;49.500;10.416;2023-08-08T12:27:32;21.90;43.20
81524;DHT22;70954;49.500;10.416;2023-08-08T12:29:57;21.90;42.50
81524;DHT22;70954;49.500;10.416;2023-08-08T12:32:26;21.80;42.20
81524;DHT22;70954;49.500;10.416;2023-08-08T12:34:52;21.80;42.70
81524;DHT22;70954;49.500;10.416;2023-08-08T12:37:17;21.70;42.10
81524;DHT22;70954;49.500;10.416;2023-08-08T12:39:43;21.70;42.50
81524;DHT22;70954;49.500;10.416;2023-08-08T12:42:08;21.70;42.80
81524;DHT22;70954;49.500;10.416;2023-08-08T12:44:34;21.80;42.60
81524;DHT22;70954;49.500;10.416;2023-08-08T12:46:59;21.80;42.20
81524;DHT22;70954;49.500;10.416;2023-08-08T12:49:25;21.80;42.20
81524;DHT22;70954;49.500;10.416;2023-08-08T12:51:51;21.80;42.20
81524;DHT22;70954;49.500;10.416;2023-08-08T12:54:17;21.80;42.70
81524;DHT22;70954;49.500;10.416;2023-08-08T12:56:42;21.90;42.70
81524;DHT22;70954;49.500;10.416;2023-08-08T12:59:09;21.90;42.30
81524;DHT22;70954;49.500;10.416;2023-08-08T13:01:34;21.90;42.40
81524;DHT22;70954;49.500;10.416;2023-08-08T13:04:00;21.90;42.20
81524;DHT22;70954;49.500;10.416;2023-08-08T13:06:25;21.90;42.10
81524;DHT22;70954;49.500;10.416;2023-08-08T13:08:51;21.90;42.30
81524;DHT22;70954;49.500;10.416;2023-08-08T13:11:16;21.90;41.80
81524;DHT22;70954;49.500;10.416;2023-08-08T13:13:42;22.00;41.80
81524;DHT22;70954;49.500;10.416;2023-08-08T13:16:07;22.00;41.90
81524;DHT22;70954;49.500;10.416;2023-08-08T13:18:33;22.00;42.40
81524;DHT22;70954;49.500;10.416;2023-08-08T13:20:58;22.10;42.50
81524;DHT22;70954;49.500;10.416;2023-08-08T13:23:24;22.10;42.40
81524;DHT22;70954;49.500;10.416;2023-08-08T13:25:49;22.20;42.10
81524;DHT22;70954;49.500;10.416;2023-08-08T13:28:14;22.20;42.60
81524;DHT22;70954;49.500;10.416;2023-08-08T13:30:40;22.20;42.40
81524;DHT22;70954;49.500;10.416;2023-08-08T13:33:06;22.30;42.00
81524;DHT22;70954;49.500;10.416;2023-08-08T13:35:31;22.30;41.90
81524;DHT22;70954;49.500;10.416;2023-08-08T13:37:56;22.30;41.40
81524;DHT22;70954;49.500;10.416;2023-08-08T13:40:22;22.30;41.20
81524;DHT22;70954;49.500;10.416;2023-08-08T13:42:47;22.30;41.50
81524;DHT22;70954;49.500;10.416;2023-08-08T13:45:14;22.30;41.60
81524;DHT22;70954;49.500;10.416;2023-08-08T13:47:39;22.40;41.50
81524;DHT22;70954;49.500;10.416;2023-08-08T13:50:05;22.30;41.70
81524;DHT22;70954;49.500;10.416;2023-08-08T13:52:31;22.40;42.20
81524;DHT22;70954;49.500;10.416;2023-08-08T13:54:56;22.40;42.40
81524;DHT22;70954;49.500;10.416;2023-08-08T13:57:22;22.40;42.40
81524;DHT22;70954;49.500;10.416;2023-08-08T13:59:47;22.50;42.60
81524;DHT22;70954;49.500;10.416;2023-08-08T14:02:13;22.50;42.40
81524;DHT22;70954;49.500;10.416;2023-08-08T14:04:38;22.50;41.90
81524;DHT22;70954;49.500;10.416;2023-08-08T14:07:04;22.50;41.80
81524;DHT22;70954;49.500;10.416;2023-08-08T14:09:29;22.50;41.30
81524;DHT22;70954;49.500;10.416;2023-08-08T14:11:55;22.50;41.30
81524;DHT22;70954;49.500;10.416;2023-08-08T14:14:20;22.50;41.50
81524;DHT22;70954;49.500;10.416;2023-08-08T14:16:46;22.50;41.70
81524;DHT22;70954;49.500;10.416;2023-08-08T14:19:11;22.50;41.70
81524;DHT22;70954;49.500;10.416;2023-08-08T14:21:37;22.50;41.50
81524;DHT22;70954;49.500;10.416;2023-08-08T14:24:02;22.60;41.30
81524;DHT22;70954;49.500;10.416;2023-08-08T14:26:28;22.60;41.80
81524;DHT22;70954;49.500;10.416;2023-08-08T14:28:53;22.60;40.80
81524;DHT22;70954;49.500;10.416;2023-08-08T14:31:19;22.70;41.30
81524;DHT22;70954;49.500;10.416;2023-08-08T14:33:44;22.70;40.70
81524;DHT22;70954;49.500;10.416;2023-08-08T14:36:10;22.80;41.00
81524;DHT22;70954;49.500;10.416;2023-08-08T14:38:35;22.80;40.90
81524;DHT22;70954;49.500;10.416;2023-08-08T14:41:01;22.80;40.50
81524;DHT22;70954;49.500;10.416;2023-08-08T14:43:26;22.80;40.50
81524;DHT22;70954;49.500;10.416;2023-08-08T14:45:52;22.80;40.60
81524;DHT22;70954;49.500;10.416;2023-08-08T14:48:17;22.80;40.50
81524;DHT22;70954;49.500;10.416;2023-08-08T14:50:43;22.80;40.00
81524;DHT22;70954;49.500;10.416;2023-08-08T14:53:08;22.90;40.50
81524;DHT22;70954;49.500;10.416;2023-08-08T14:55:34;22.90;40.70
81524;DHT22;70954;49.500;10.416;2023-08-08T14:57:59;22.90;40.70
81524;DHT22;70954;49.500;10.416;2023-08-08T15:00:25;23.00;40.50
81524;DHT22;70954;49.500;10.416;2023-08-08T15:02:50;23.10;40.10
81524;DHT22;70954;49.500;10.416;2023-08-08T15:05:16;23.10;40.00
81524;DHT22;70954;49.500;10.416;2023-08-08T15:07:41;23.10;40.00
81524;DHT22;70954;49.500;10.416;2023-08-08T15:10:07;23.20;39.70